KJKJ

Moorhead Municipal Airport

Moorhead, Minnesota, USA
METAR KJKJ 230935Z AUTO 33004KT 10SM CLR M04/M06 A3039 RMK AO2
Observed Flight Rules
Oct-23 @ 09:35 UTC (16 minutes ago) Visual Flight Rules
Wind Visibility Clouds
330° at 4 knots 10 miles
  • Clear skies
Temperatures Readings
Current -4°C / 25°F
Dewpoint -6°C / 21°F
Humidity 86%
Altimeter 30.39" Hg
Pressure 1029 hPa
Elevation 280
METAR KJKJ 230935Z AUTO 33004KT 10SM CLR M04/M06 A3039 RMK AO2
Observed Flight Rules
Oct-23 @ 09:35 UTC
(16 minutes ago)
VFR
Wind Visibility
330° at 4 knots 10 miles
Clouds
  • Clear skies
Temperature Dewpoint
-4°C / 25°F -6°C / 21°F
Humidity Altimeter Pressure
86% 30.39" Hg 1029 hPa